Time;durP1;ratioP1;P1;durP2;ratioP2;P2;SDS_P1;SDS_P2;PMS_P1;PMS_P2;Temp;Humidity;BMP_temperature;BMP_pressure;BME280_temperature;BME280_humidity;BME280_pressure;Samples;Min_cycle;Max_cycle;Signal;HPM_P1;HPM_P2
2023/06/13 00:01:30;;;;;;;10.13;4.55;;;21.00;99.90;;;;;;5011361;28;20081;-57
2023/06/13 00:03:56;;;;;;;8.10;4.20;;;20.90;99.90;;;;;;5012118;28;20060;-57
2023/06/13 00:06:22;;;;;;;7.35;4.28;;;20.80;99.90;;;;;;5011835;28;20049;-57
2023/06/13 00:08:48;;;;;;;7.40;4.47;;;20.80;99.90;;;;;;5010328;28;20111;-57
2023/06/13 00:11:14;;;;;;;6.35;4.07;;;20.80;99.90;;;;;;5011636;28;20046;-57
2023/06/13 00:13:40;;;;;;;8.30;4.90;;;20.80;99.90;;;;;;5011581;28;20496;-57
2023/06/13 00:16:06;;;;;;;12.05;4.78;;;20.80;99.90;;;;;;5012137;28;20076;-57
2023/06/13 00:18:32;;;;;;;9.82;4.60;;;20.70;99.90;;;;;;5011725;28;20046;-57
2023/06/13 00:20:58;;;;;;;7.88;5.25;;;21.10;99.90;;;;;;5011271;28;20132;-57
2023/06/13 00:23:26;;;;;;;7.13;4.65;;;20.70;99.90;;;;;;5011656;28;20092;-57
2023/06/13 00:25:52;;;;;;;6.57;4.72;;;20.70;99.90;;;;;;5010155;28;20127;-57
2023/06/13 00:28:18;;;;;;;7.45;4.78;;;20.60;99.90;;;;;;5000117;28;20037;-57
2023/06/13 00:30:45;;;;;;;8.15;4.72;;;20.50;99.90;;;;;;5010538;28;20456;-57
2023/06/13 00:33:17;;;;;;;11.23;5.55;;;20.50;99.90;;;;;;5011554;28;20046;-57
2023/06/13 00:35:44;;;;;;;10.30;5.47;;;20.50;99.90;;;;;;5011343;28;20113;-57
2023/06/13 00:38:10;;;;;;;7.32;4.68;;;20.40;99.90;;;;;;5011414;28;20096;-58
2023/06/13 00:40:36;;;;;;;9.65;5.32;;;20.30;99.90;;;;;;5010459;28;20049;-57
2023/06/13 00:43:02;;;;;;;8.68;5.55;;;20.20;99.90;;;;;;5011392;28;20488;-57
2023/06/13 00:45:29;;;;;;;10.07;5.38;;;20.20;99.90;;;;;;5011007;28;20149;-57
2023/06/13 00:47:59;;;;;;;8.60;5.65;;;20.20;99.90;;;;;;5011288;28;20444;-57
2023/06/13 00:50:36;;;;;;;8.23;5.47;;;20.10;99.90;;;;;;5010657;28;20030;-57
2023/06/13 00:53:09;;;;;;;10.90;5.32;;;20.10;99.90;;;;;;5011246;28;20056;-57
2023/06/13 00:55:36;;;;;;;9.50;6.10;;;20.10;99.90;;;;;;5010855;28;20462;-57
2023/06/13 00:58:06;;;;;;;8.65;5.97;;;20.00;99.90;;;;;;5011386;28;20449;-57
2023/06/13 01:00:33;;;;;;;7.80;5.68;;;20.00;99.90;;;;;;5010390;28;20088;-57
2023/06/13 01:02:59;;;;;;;9.93;5.97;;;20.00;99.90;;;;;;5010993;28;20446;-57
2023/06/13 01:05:28;;;;;;;9.02;6.10;;;19.90;99.90;;;;;;5010255;28;20064;-57
2023/06/13 01:07:57;;;;;;;8.88;5.60;;;19.90;99.90;;;;;;5010584;28;20054;-57
2023/06/13 01:10:24;;;;;;;10.82;5.25;;;19.80;99.90;;;;;;5010527;28;20041;-57
2023/06/13 01:13:01;;;;;;;8.60;4.97;;;19.80;99.90;;;;;;5010793;28;20148;-57
2023/06/13 01:15:32;;;;;;;9.35;5.85;;;19.80;99.90;;;;;;5010241;28;20407;-57
2023/06/13 01:18:00;;;;;;;9.90;5.93;;;19.80;99.90;;;;;;5009683;28;20049;-57
2023/06/13 01:20:32;;;;;;;6.13;4.93;;;19.70;99.90;;;;;;5010002;28;20499;-57
2023/06/13 01:23:22;;;;;;;6.50;5.10;;;19.60;99.90;;;;;;5010792;28;20042;-57
2023/06/13 01:26:15;;;;;;;12.57;5.43;;;19.50;99.90;;;;;;5010808;28;20042;-57
2023/06/13 01:28:43;;;;;;;6.15;5.20;;;19.40;99.90;;;;;;5000447;28;20038;-57
2023/06/13 01:31:14;;;;;;;13.63;5.60;;;19.40;99.90;;;;;;5009679;28;20041;-57
2023/06/13 01:33:40;;;;;;;7.30;5.45;;;19.30;99.90;;;;;;5010506;28;20567;-57
2023/06/13 01:36:07;;;;;;;9.98;4.85;;;19.20;99.90;;;;;;5010160;28;20412;-57
2023/06/13 01:38:33;;;;;;;12.73;4.75;;;19.20;99.90;;;;;;5010568;28;20038;-57
2023/06/13 01:40:59;;;;;;;8.23;4.78;;;19.10;99.90;;;;;;5009963;28;20099;-57
2023/06/13 01:43:24;;;;;;;10.00;5.32;;;19.10;99.90;;;;;;5010062;28;20054;-57
2023/06/13 01:46:00;;;;;;;7.90;5.07;;;19.10;99.90;;;;;;5008969;28;20486;-57
2023/06/13 01:48:50;;;;;;;11.43;5.20;;;19.10;99.90;;;;;;5010639;28;20077;-57
2023/06/13 01:51:33;;;;;;;8.43;4.93;;;19.00;99.90;;;;;;5008490;28;20042;-57
2023/06/13 01:54:06;;;;;;;8.50;4.97;;;18.90;99.90;;;;;;5009911;28;20112;-57
2023/06/13 01:56:34;;;;;;;10.23;5.13;;;18.90;99.90;;;;;;5010750;28;20042;-57
2023/06/13 01:59:04;;;;;;;7.20;4.75;;;18.90;99.90;;;;;;5010203;28;20140;-57
2023/06/13 02:01:34;;;;;;;9.23;4.80;;;19.00;99.90;;;;;;5009512;28;20030;-57
2023/06/13 02:04:03;;;;;;;6.55;5.38;;;18.90;99.90;;;;;;5010278;28;20508;-57
2023/06/13 02:06:29;;;;;;;8.35;4.97;;;18.80;99.90;;;;;;5009887;28;20492;-57
2023/06/13 02:08:56;;;;;;;7.63;4.68;;;18.80;99.90;;;;;;5010206;28;20049;-57
2023/06/13 02:11:22;;;;;;;10.77;5.10;;;18.80;99.90;;;;;;5008052;28;20683;-57
2023/06/13 02:13:48;;;;;;;8.63;4.55;;;18.80;99.90;;;;;;5008874;28;20070;-57
2023/06/13 02:16:14;;;;;;;11.23;4.85;;;18.70;99.90;;;;;;5009831;28;20034;-57
2023/06/13 02:18:40;;;;;;;11.65;4.70;;;18.60;99.90;;;;;;5009903;28;20171;-57
2023/06/13 02:21:06;;;;;;;12.25;5.18;;;18.60;99.90;;;;;;5009315;28;20041;-57
2023/06/13 02:23:32;;;;;;;6.57;4.70;;;18.60;99.90;;;;;;5010236;28;20412;-57
2023/06/13 02:25:57;;;;;;;6.88;4.70;;;18.50;99.90;;;;;;5009845;28;20049;-57
2023/06/13 02:28:23;;;;;;;9.90;4.25;;;18.50;99.90;;;;;;5001802;28;20485;-58
2023/06/13 02:30:49;;;;;;;7.40;4.85;;;18.40;99.90;;;;;;5028227;28;20077;-57
2023/06/13 02:33:15;;;;;;;12.23;4.85;;;18.40;99.90;;;;;;5013433;28;20077;-57
2023/06/13 02:35:42;;;;;;;6.30;4.10;;;18.40;99.90;;;;;;5013546;28;20038;-57
2023/06/13 02:38:07;;;;;;;8.10;5.03;;;18.30;99.90;;;;;;5013544;28;20056;-57
2023/06/13 02:40:36;;;;;;;8.35;4.55;;;18.30;99.90;;;;;;5013348;28;20045;-57
2023/06/13 02:43:02;;;;;;;7.43;4.80;;;18.30;99.90;;;;;;5012967;28;20520;-57
2023/06/13 02:45:28;;;;;;;8.32;4.90;;;18.20;99.90;;;;;;4995520;28;20048;-57
2023/06/13 02:47:54;;;;;;;8.80;5.30;;;18.20;99.90;;;;;;5013412;28;20080;-57
2023/06/13 02:50:21;;;;;;;11.13;7.10;;;18.20;99.90;;;;;;5010170;28;20052;-57
2023/06/13 02:52:50;;;;;;;17.17;9.05;;;18.10;99.90;;;;;;5011988;28;20495;-57
2023/06/13 02:55:15;;;;;;;12.63;6.70;;;18.40;99.90;;;;;;5012655;28;20094;-56
2023/06/13 02:57:41;;;;;;;10.57;5.63;;;18.10;99.90;;;;;;5012816;28;20042;-57
2023/06/13 03:00:09;;;;;;;12.43;5.40;;;18.00;99.90;;;;;;5012522;28;20041;-57
2023/06/13 03:02:38;;;;;;;9.52;5.15;;;18.00;99.90;;;;;;5011977;28;20088;-57
2023/06/13 03:05:11;;;;;;;7.93;4.43;;;18.00;99.90;;;;;;5012690;28;20069;-57
2023/06/13 03:07:42;;;;;;;9.43;5.10;;;18.00;99.90;;;;;;5013221;28;20072;-57
2023/06/13 03:10:09;;;;;;;10.32;4.65;;;17.90;99.90;;;;;;5013002;28;20048;-57
2023/06/13 03:12:35;;;;;;;7.88;5.03;;;17.90;99.90;;;;;;5012417;28;20088;-57
2023/06/13 03:15:01;;;;;;;8.43;5.13;;;17.80;99.90;;;;;;5012481;28;20045;-57
2023/06/13 03:17:28;;;;;;;7.55;4.60;;;17.90;99.90;;;;;;5012624;28;20038;-56
2023/06/13 03:19:53;;;;;;;6.88;4.82;;;17.80;99.90;;;;;;5012587;28;20034;-57
2023/06/13 03:22:19;;;;;;;7.05;5.03;;;17.80;99.90;;;;;;5012843;28;20435;-58
2023/06/13 03:24:45;;;;;;;7.93;4.80;;;17.80;99.90;;;;;;5011954;28;20034;-57
2023/06/13 03:27:14;;;;;;;10.38;4.63;;;17.90;99.90;;;;;;5006716;28;20400;-56
2023/06/13 03:29:41;;;;;;;10.43;4.57;;;17.80;99.90;;;;;;5007419;28;20049;-57
2023/06/13 03:32:10;;;;;;;10.02;4.80;;;17.80;99.90;;;;;;5012511;28;20038;-57
2023/06/13 03:34:40;;;;;;;9.55;5.32;;;17.80;99.90;;;;;;4994547;28;20046;-57
2023/06/13 03:37:09;;;;;;;10.10;5.00;;;17.80;99.90;;;;;;5012330;28;20400;-57
2023/06/13 03:39:35;;;;;;;8.98;5.20;;;18.10;99.90;;;;;;5011151;28;20033;-57
2023/06/13 03:42:01;;;;;;;10.00;5.38;;;17.90;99.90;;;;;;5012214;28;20058;-57
2023/06/13 03:44:27;;;;;;;7.18;4.93;;;17.80;99.90;;;;;;5012290;28;20412;-57
2023/06/13 03:46:55;;;;;;;14.77;4.75;;;17.80;99.90;;;;;;5010862;28;20419;-57
2023/06/13 03:49:20;;;;;;;7.78;4.72;;;17.80;99.90;;;;;;5012648;28;20038;-57
2023/06/13 03:51:46;;;;;;;9.75;4.78;;;17.80;99.90;;;;;;5012677;28;20103;-57
2023/06/13 03:54:11;;;;;;;10.93;5.30;;;17.80;99.90;;;;;;5011813;28;20057;-57
2023/06/13 03:56:37;;;;;;;6.95;4.65;;;17.80;99.90;;;;;;5012575;28;20036;-57
2023/06/13 03:59:03;;;;;;;11.43;5.38;;;17.70;99.90;;;;;;5012206;28;20037;-57
2023/06/13 04:01:28;;;;;;;9.27;6.10;;;17.70;99.90;;;;;;5012417;28;20037;-57
2023/06/13 04:03:55;;;;;;;10.15;4.97;;;17.70;99.90;;;;;;5026899;28;20042;-57
2023/06/13 04:06:20;;;;;;;8.38;5.07;;;17.80;99.90;;;;;;5011976;28;20045;-57
2023/06/13 04:08:46;;;;;;;8.57;5.10;;;17.60;99.90;;;;;;5012467;28;20053;-58
2023/06/13 04:11:12;;;;;;;9.90;5.20;;;17.60;99.90;;;;;;5012096;28;20042;-57
2023/06/13 04:13:38;;;;;;;10.80;5.43;;;17.60;99.90;;;;;;5011983;28;20045;-57
2023/06/13 04:16:03;;;;;;;8.80;5.10;;;17.60;99.90;;;;;;5010824;28;20041;-57
2023/06/13 04:18:29;;;;;;;10.70;4.97;;;17.60;99.90;;;;;;5012367;28;20040;-57
2023/06/13 04:20:56;;;;;;;8.65;5.30;;;17.60;99.90;;;;;;5011657;28;20038;-57
2023/06/13 04:23:25;;;;;;;10.52;5.20;;;17.50;99.90;;;;;;5012125;28;20068;-57
2023/06/13 04:25:51;;;;;;;9.30;5.00;;;17.60;99.90;;;;;;5011414;28;20037;-57
2023/06/13 04:28:17;;;;;;;6.50;5.38;;;17.60;99.90;;;;;;5001830;28;20088;-57
2023/06/13 04:30:46;;;;;;;9.50;5.60;;;17.50;99.90;;;;;;5010692;28;20054;-57
2023/06/13 04:33:16;;;;;;;8.30;5.50;;;17.50;99.90;;;;;;5011716;28;20500;-57
2023/06/13 04:35:44;;;;;;;12.02;5.40;;;17.50;99.90;;;;;;5011404;28;20030;-57
2023/06/13 04:38:14;;;;;;;8.85;5.20;;;17.50;99.90;;;;;;5011616;28;20038;-57
2023/06/13 04:40:40;;;;;;;9.50;5.40;;;17.50;99.90;;;;;;5010809;28;20044;-57
2023/06/13 04:43:05;;;;;;;10.20;5.00;;;17.50;99.90;;;;;;5011121;28;20050;-57
2023/06/13 04:45:32;;;;;;;9.32;5.38;;;17.60;99.90;;;;;;5011019;28;20042;-57
2023/06/13 04:48:01;;;;;;;9.88;4.82;;;17.50;99.90;;;;;;5011113;28;20046;-57
2023/06/13 04:50:31;;;;;;;8.90;5.10;;;17.50;99.90;;;;;;5009038;28;20037;-57
2023/06/13 04:52:57;;;;;;;8.30;5.35;;;17.60;99.90;;;;;;5010552;28;20068;-57
2023/06/13 04:55:25;;;;;;;7.40;5.40;;;17.60;99.90;;;;;;5010980;28;20041;-57
2023/06/13 04:57:51;;;;;;;8.57;5.22;;;17.70;99.90;;;;;;5011141;28;20068;-57
2023/06/13 05:00:18;;;;;;;12.32;6.43;;;17.70;99.90;;;;;;5009589;28;20103;-57
2023/06/13 05:02:45;;;;;;;10.30;5.43;;;17.70;99.90;;;;;;5004075;28;20072;-57
2023/06/13 05:05:10;;;;;;;7.93;5.30;;;17.80;99.90;;;;;;5005479;28;20081;-57
2023/06/13 05:07:39;;;;;;;8.45;5.10;;;17.80;99.90;;;;;;5005657;28;20053;-57
2023/06/13 05:10:05;;;;;;;12.48;5.55;;;17.90;99.90;;;;;;5012029;28;20069;-57
2023/06/13 05:12:30;;;;;;;10.18;4.95;;;17.90;99.90;;;;;;5010483;28;20038;-57
2023/06/13 05:14:56;;;;;;;7.80;4.88;;;17.90;99.90;;;;;;5009230;28;20038;-57
2023/06/13 05:17:22;;;;;;;8.25;5.03;;;17.90;99.90;;;;;;5009841;28;20515;-57
2023/06/13 05:19:48;;;;;;;9.25;5.18;;;18.00;99.90;;;;;;5010669;28;20041;-57
2023/06/13 05:22:15;;;;;;;10.10;5.18;;;18.10;99.90;;;;;;5007832;28;20038;-57
2023/06/13 05:24:41;;;;;;;7.75;5.05;;;18.10;99.90;;;;;;5012943;28;20057;-57
2023/06/13 05:27:07;;;;;;;9.50;4.70;;;18.20;99.90;;;;;;5004379;28;20037;-57
2023/06/13 05:29:33;;;;;;;5.95;4.80;;;18.20;99.90;;;;;;5009235;28;20483;-57
2023/06/13 05:31:59;;;;;;;10.98;5.00;;;18.20;99.90;;;;;;5008593;28;20128;-57
2023/06/13 05:34:25;;;;;;;6.03;4.75;;;18.30;99.90;;;;;;5005929;28;20523;-57
2023/06/13 05:36:51;;;;;;;9.55;4.72;;;18.40;99.90;;;;;;5007341;28;20519;-57
2023/06/13 05:39:17;;;;;;;5.82;4.60;;;18.40;99.90;;;;;;5006422;28;20109;-57
2023/06/13 05:41:42;;;;;;;8.93;4.82;;;18.50;99.90;;;;;;5016260;28;20038;-57
2023/06/13 05:44:08;;;;;;;18.95;4.80;;;18.50;99.90;;;;;;5010164;28;20052;-57
2023/06/13 05:46:34;;;;;;;7.07;4.65;;;18.60;99.90;;;;;;5006559;28;20042;-57
2023/06/13 05:49:00;;;;;;;8.10;4.88;;;18.70;99.90;;;;;;5007546;28;20492;-57
2023/06/13 05:51:25;;;;;;;5.95;4.30;;;18.70;99.90;;;;;;5004678;28;21524;-57
2023/06/13 05:53:51;;;;;;;10.43;4.82;;;18.80;99.90;;;;;;5004236;28;20049;-57
2023/06/13 05:56:17;;;;;;;11.57;4.72;;;19.10;99.90;;;;;;5003920;28;20045;-57
2023/06/13 05:58:43;;;;;;;6.45;4.40;;;19.00;99.90;;;;;;5008796;28;20045;-57
2023/06/13 06:01:10;;;;;;;5.72;4.43;;;19.10;99.90;;;;;;5005776;28;20068;-57
2023/06/13 06:03:36;;;;;;;8.18;4.38;;;19.10;99.90;;;;;;5008749;28;20046;-57
2023/06/13 06:06:02;;;;;;;7.32;4.65;;;19.20;99.90;;;;;;5010720;28;20042;-57
2023/06/13 06:08:28;;;;;;;6.63;4.40;;;19.20;99.90;;;;;;5012661;28;20488;-57
2023/06/13 06:10:54;;;;;;;9.07;4.72;;;19.20;99.90;;;;;;5010090;28;20136;-57
2023/06/13 06:13:19;;;;;;;9.20;4.80;;;19.20;99.90;;;;;;5012225;28;20050;-56
2023/06/13 06:15:45;;;;;;;12.32;4.63;;;19.20;99.90;;;;;;5010945;28;20034;-57
2023/06/13 06:18:11;;;;;;;9.68;4.78;;;19.30;99.90;;;;;;4989124;28;20500;-56
2023/06/13 06:20:36;;;;;;;8.55;5.22;;;19.40;99.90;;;;;;5004705;28;20038;-57
2023/06/13 06:23:02;;;;;;;10.65;4.80;;;19.40;99.90;;;;;;5010458;28;20069;-56
2023/06/13 06:25:27;;;;;;;9.15;4.65;;;19.50;99.90;;;;;;5011278;28;20451;-56
2023/06/13 06:27:55;;;;;;;8.40;4.90;;;19.60;99.90;;;;;;5011495;28;20033;-57
2023/06/13 06:30:20;;;;;;;5.13;4.50;;;19.70;99.90;;;;;;5009725;28;20097;-57
2023/06/13 06:32:47;;;;;;;7.43;4.43;;;19.80;99.90;;;;;;5011505;28;20526;-57
2023/06/13 06:35:14;;;;;;;9.43;4.63;;;19.90;99.90;;;;;;5011622;28;20053;-57
2023/06/13 06:37:40;;;;;;;9.18;4.50;;;20.00;99.90;;;;;;5010731;28;20118;-57
2023/06/13 06:40:06;;;;;;;7.88;4.80;;;20.20;99.90;;;;;;5013083;28;20042;-57
2023/06/13 06:42:32;;;;;;;13.25;5.00;;;20.30;99.90;;;;;;5012162;28;20085;-56
2023/06/13 06:44:58;;;;;;;10.27;4.50;;;20.40;99.90;;;;;;5004882;28;20069;-57
2023/06/13 06:47:23;;;;;;;5.25;4.15;;;20.50;99.90;;;;;;5001491;28;20049;-57
2023/06/13 06:49:49;;;;;;;7.70;4.80;;;20.60;99.90;;;;;;5007562;28;20647;-57
2023/06/13 06:52:17;;;;;;;7.13;4.97;;;20.70;99.90;;;;;;5012254;28;20046;-57
2023/06/13 06:54:43;;;;;;;9.45;4.65;;;20.80;99.90;;;;;;5012276;28;20034;-57
2023/06/13 06:57:08;;;;;;;12.50;4.85;;;21.00;99.90;;;;;;5009322;28;20041;-57
2023/06/13 06:59:34;;;;;;;9.20;4.55;;;21.00;99.90;;;;;;5007441;28;20069;-58
2023/06/13 07:01:59;;;;;;;13.85;4.63;;;21.20;99.90;;;;;;5008132;28;20145;-58
2023/06/13 07:04:25;;;;;;;14.80;4.75;;;21.70;99.90;;;;;;5012216;28;20159;-58
2023/06/13 07:06:51;;;;;;;15.18;5.00;;;21.40;99.90;;;;;;5011523;28;20107;-58
2023/06/13 07:09:16;;;;;;;8.68;4.30;;;21.50;99.90;;;;;;5011706;28;20072;-58
2023/06/13 07:11:42;;;;;;;9.30;4.30;;;21.70;99.90;;;;;;5005616;28;20069;-57
2023/06/13 07:14:08;;;;;;;6.70;4.15;;;21.90;99.90;;;;;;5011110;28;20041;-58
2023/06/13 07:16:33;;;;;;;9.02;4.63;;;22.10;99.90;;;;;;5011377;28;20068;-58
2023/06/13 07:18:59;;;;;;;6.45;3.70;;;22.20;99.90;;;;;;5006675;28;20034;-58
2023/06/13 07:21:25;;;;;;;5.57;4.03;;;22.40;99.90;;;;;;5009946;28;20045;-58
2023/06/13 07:23:51;;;;;;;11.80;4.30;;;22.60;99.90;;;;;;5010899;28;20038;-58
2023/06/13 07:26:17;;;;;;;7.50;4.10;;;22.70;99.90;;;;;;5006239;28;20111;-57
2023/06/13 07:28:42;;;;;;;10.55;4.03;;;22.80;99.90;;;;;;5008051;28;20096;-58
2023/06/13 07:31:08;;;;;;;11.77;3.97;;;23.00;99.90;;;;;;5016854;28;20037;-58
2023/06/13 07:33:33;;;;;;;8.25;4.03;;;23.30;99.90;;;;;;5011727;28;20042;-58
2023/06/13 07:36:00;;;;;;;9.45;4.10;;;23.50;99.90;;;;;;5009188;28;20037;-58
2023/06/13 07:38:26;;;;;;;8.45;3.83;;;23.70;99.90;;;;;;5010681;28;20045;-58
2023/06/13 07:40:51;;;;;;;5.35;3.63;;;23.70;99.90;;;;;;5010156;28;20030;-58
2023/06/13 07:43:17;;;;;;;6.82;4.10;;;24.00;99.90;;;;;;5010601;28;20046;-58
2023/06/13 07:45:42;;;;;;;6.63;4.00;;;24.40;99.90;;;;;;5009070;28;20439;-58
2023/06/13 07:48:08;;;;;;;7.65;3.70;;;24.30;99.90;;;;;;5009669;28;20067;-58
2023/06/13 07:50:34;;;;;;;5.53;3.47;;;24.40;99.90;;;;;;5009713;28;20624;-58
2023/06/13 07:53:00;;;;;;;5.43;3.28;;;24.50;99.90;;;;;;5008643;28;20092;-57
2023/06/13 07:55:26;;;;;;;10.27;3.67;;;24.60;99.90;;;;;;5010073;28;20042;-57
2023/06/13 07:57:52;;;;;;;6.20;3.20;;;24.60;99.90;;;;;;5009719;28;20121;-58
2023/06/13 08:00:18;;;;;;;6.20;3.00;;;24.60;99.90;;;;;;5003971;28;20121;-58
2023/06/13 08:02:44;;;;;;;9.93;3.70;;;24.70;99.90;;;;;;5005188;28;20552;-59
2023/06/13 08:05:11;;;;;;;8.80;3.50;;;24.70;99.90;;;;;;5009457;28;20396;-58
2023/06/13 08:07:36;;;;;;;8.32;3.50;;;24.70;99.90;;;;;;5009216;28;20069;-58
2023/06/13 08:10:02;;;;;;;6.63;3.67;;;24.90;99.90;;;;;;5007591;28;20041;-59
2023/06/13 08:12:28;;;;;;;7.60;3.50;;;25.00;99.90;;;;;;5008216;28;20599;-58
2023/06/13 08:14:53;;;;;;;6.82;3.42;;;25.10;99.90;;;;;;5010192;28;20338;-58
2023/06/13 08:17:19;;;;;;;6.82;3.47;;;25.10;99.90;;;;;;5003334;28;20034;-58
2023/06/13 08:19:48;;;;;;;9.23;3.28;;;25.10;99.90;;;;;;5004508;28;20048;-58
2023/06/13 08:22:15;;;;;;;4.10;3.28;;;25.10;99.90;;;;;;5008203;28;20599;-59
2023/06/13 08:24:40;;;;;;;5.90;3.40;;;25.10;99.90;;;;;;5006511;28;20063;-58
2023/06/13 08:27:13;;;;;;;8.02;3.13;;;25.30;99.90;;;;;;5007121;28;20510;-57
2023/06/13 08:29:39;;;;;;;6.07;2.92;;;25.40;99.90;;;;;;5009465;28;20049;-58
2023/06/13 08:32:04;;;;;;;9.57;3.55;;;25.50;99.90;;;;;;5010434;28;20068;-59
2023/06/13 08:34:30;;;;;;;5.15;3.05;;;25.60;99.90;;;;;;5009093;28;20048;-58
2023/06/13 08:36:56;;;;;;;6.72;3.28;;;25.80;99.90;;;;;;5007250;28;20041;-58
2023/06/13 08:39:22;;;;;;;4.82;3.03;;;26.00;99.90;;;;;;5009609;28;20042;-58
2023/06/13 08:41:49;;;;;;;4.97;3.25;;;26.00;99.90;;;;;;5003975;28;20100;-58
2023/06/13 08:44:16;;;;;;;6.72;3.30;;;25.90;99.90;;;;;;5006168;28;20045;-57
2023/06/13 08:46:42;;;;;;;7.93;3.45;;;25.90;99.90;;;;;;5009821;28;20116;-58
2023/06/13 08:49:08;;;;;;;7.47;3.20;;;25.80;99.90;;;;;;5000987;28;20121;-58
2023/06/13 08:51:35;;;;;;;5.75;3.10;;;26.10;99.90;;;;;;5004589;28;20579;-58
2023/06/13 08:54:03;;;;;;;5.97;3.42;;;26.10;99.90;;;;;;5008742;28;20137;-58
2023/06/13 08:56:33;;;;;;;6.20;3.30;;;26.00;99.90;;;;;;4989947;28;20091;-58
2023/06/13 08:59:21;;;;;;;8.32;3.40;;;26.20;99.90;;;;;;5008849;28;20084;-58
2023/06/13 09:01:48;;;;;;;5.72;3.28;;;26.50;99.90;;;;;;5004455;28;20396;-58
2023/06/13 09:04:16;;;;;;;7.10;3.17;;;26.80;99.90;;;;;;5021640;28;20384;-58
2023/06/13 09:06:43;;;;;;;7.35;3.25;;;26.80;99.90;;;;;;5008698;28;20088;-59
2023/06/13 09:09:11;;;;;;;7.25;3.58;;;27.00;99.90;;;;;;5006927;28;20129;-58
2023/06/13 09:11:37;;;;;;;6.35;3.45;;;27.10;99.90;;;;;;5008345;28;20073;-58
2023/06/13 09:14:07;;;;;;;6.28;3.63;;;27.10;99.90;;;;;;5008369;28;20038;-58
2023/06/13 09:16:33;;;;;;;9.25;3.65;;;26.90;99.90;;;;;;5006756;28;20050;-58
2023/06/13 09:18:59;;;;;;;6.75;3.55;;;26.80;99.90;;;;;;5007092;28;20042;-58
2023/06/13 09:21:26;;;;;;;6.90;3.60;;;26.80;99.90;;;;;;5007166;28;20518;-58
2023/06/13 09:23:59;;;;;;;5.35;3.40;;;26.80;99.90;;;;;;5008279;28;20038;-58
2023/06/13 09:26:26;;;;;;;7.78;3.40;;;26.80;99.90;;;;;;5007071;28;20507;-58
2023/06/13 09:28:51;;;;;;;10.25;3.75;;;26.70;99.90;;;;;;5006745;28;20100;-58
2023/06/13 09:31:17;;;;;;;6.13;3.63;;;26.50;99.90;;;;;;5009467;28;20050;-58
2023/06/13 09:33:45;;;;;;;4.40;3.38;;;26.50;99.90;;;;;;5009403;28;20128;-59
2023/06/13 09:36:10;;;;;;;6.65;3.30;;;26.70;99.90;;;;;;5007970;28;20126;-59
2023/06/13 09:38:40;;;;;;;6.35;3.70;;;26.80;99.90;;;;;;5008385;28;20120;-59
2023/06/13 09:41:08;;;;;;;7.95;3.92;;;27.00;99.90;;;;;;5008446;28;20034;-59
2023/06/13 09:43:36;;;;;;;5.05;3.80;;;27.10;99.90;;;;;;4997789;28;20061;-59
2023/06/13 09:46:02;;;;;;;7.75;3.85;;;27.40;99.90;;;;;;4998534;28;20122;-59
2023/06/13 09:48:28;;;;;;;7.80;3.83;;;27.30;99.90;;;;;;5007806;28;20548;-59
2023/06/13 09:50:54;;;;;;;3.92;3.30;;;27.10;99.90;;;;;;5006254;28;20053;-59
2023/06/13 09:53:20;;;;;;;7.75;3.47;;;27.00;99.90;;;;;;5006045;28;20488;-61
2023/06/13 09:55:45;;;;;;;7.93;4.00;;;26.90;99.90;;;;;;5023447;28;20466;-60
2023/06/13 09:58:11;;;;;;;5.90;3.45;;;26.90;99.90;;;;;;5007459;28;20433;-59
2023/06/13 10:00:37;;;;;;;7.55;3.70;;;26.80;99.90;;;;;;5008263;28;20033;-59
2023/06/13 10:03:03;;;;;;;8.00;3.63;;;26.80;99.90;;;;;;5008028;28;20034;-59
2023/06/13 10:05:29;;;;;;;5.32;3.80;;;26.70;99.90;;;;;;5006185;28;20124;-59
2023/06/13 10:07:55;;;;;;;8.48;3.90;;;26.60;99.90;;;;;;5007679;28;20140;-59
2023/06/13 10:10:21;;;;;;;11.43;4.07;;;26.60;99.90;;;;;;5007949;28;20113;-59
2023/06/13 10:12:57;;;;;;;5.80;3.60;;;26.60;99.90;;;;;;5007784;28;20037;-59
2023/06/13 10:15:39;;;;;;;5.57;3.70;;;26.70;99.90;;;;;;5007469;28;20120;-59
2023/06/13 10:18:14;;;;;;;7.47;4.10;;;26.70;99.90;;;;;;5006977;28;20030;-59
2023/06/13 10:20:40;;;;;;;4.82;3.92;;;26.70;99.90;;;;;;5006558;28;20070;-59
2023/06/13 10:23:13;;;;;;;7.65;3.80;;;26.60;99.90;;;;;;5007094;28;20172;-59
2023/06/13 10:25:40;;;;;;;9.43;3.90;;;26.60;99.90;;;;;;5006244;28;20038;-59
2023/06/13 10:28:26;;;;;;;7.75;3.65;;;26.30;99.90;;;;;;5008096;28;20392;-59
2023/06/13 10:31:26;;;;;;;5.70;3.65;;;26.30;99.90;;;;;;4993563;28;20050;-59
2023/06/13 10:34:14;;;;;;;9.23;3.45;;;26.20;99.90;;;;;;5004244;28;20045;-59
2023/06/13 10:36:42;;;;;;;5.63;3.50;;;26.00;99.90;;;;;;4997084;28;20484;-59
2023/06/13 10:39:34;;;;;;;6.50;3.42;;;26.00;99.90;;;;;;5005560;28;20044;-59
2023/06/13 10:42:19;;;;;;;8.93;3.83;;;25.90;99.90;;;;;;5006012;28;20057;-58
2023/06/13 10:45:07;;;;;;;8.65;3.60;;;25.90;99.90;;;;;;5008186;28;20041;-58
2023/06/13 10:47:33;;;;;;;6.05;3.55;;;26.00;99.90;;;;;;5005034;28;20048;-59
2023/06/13 10:50:02;;;;;;;13.57;3.78;;;26.00;99.90;;;;;;5001225;28;20048;-58
2023/06/13 10:52:29;;;;;;;6.75;3.28;;;25.90;99.90;;;;;;5009694;28;20029;-57
2023/06/13 10:55:01;;;;;;;8.48;3.60;;;25.80;99.90;;;;;;5011192;28;20054;-58
2023/06/13 10:57:49;;;;;;;13.13;3.65;;;25.90;99.90;;;;;;5010759;28;20628;-57
2023/06/13 11:00:33;;;;;;;11.45;3.72;;;25.90;99.90;;;;;;5010770;28;20042;-57
2023/06/13 11:02:58;;;;;;;8.18;3.33;;;25.90;99.90;;;;;;5010675;28;20054;-59
2023/06/13 11:05:25;;;;;;;10.57;3.33;;;26.60;99.90;;;;;;5022495;28;20046;-58
2023/06/13 11:07:54;;;;;;;7.72;3.53;;;25.80;99.90;;;;;;5010331;28;20446;-58
2023/06/13 11:10:19;;;;;;;5.80;3.00;;;25.80;99.90;;;;;;5008382;28;20042;-58
2023/06/13 11:12:45;;;;;;;7.57;3.33;;;25.60;99.90;;;;;;5005045;28;20116;-58
2023/06/13 11:15:25;;;;;;;15.00;3.45;;;25.50;99.90;;;;;;5010864;28;20045;-59
2023/06/13 11:18:09;;;;;;;7.50;3.28;;;25.40;99.90;;;;;;5000124;28;20034;-58
2023/06/13 11:20:52;;;;;;;12.50;3.17;;;25.40;99.90;;;;;;5009169;28;20042;-58
2023/06/13 11:23:21;;;;;;;5.93;3.00;;;25.40;99.90;;;;;;5007678;28;20045;-59
2023/06/13 11:25:51;;;;;;;9.85;2.85;;;25.20;99.90;;;;;;5001202;28;20038;-58
2023/06/13 11:28:18;;;;;;;9.23;3.10;;;25.00;99.90;;;;;;5006015;28;20030;-59
2023/06/13 11:30:50;;;;;;;13.80;3.08;;;25.10;99.90;;;;;;5007373;28;20045;-58
2023/06/13 11:33:17;;;;;;;15.35;3.15;;;25.30;99.90;;;;;;4985611;28;20042;-59
2023/06/13 11:35:49;;;;;;;17.25;3.10;;;24.90;99.90;;;;;;5010833;28;20046;-59
2023/06/13 11:38:20;;;;;;;10.55;3.40;;;24.80;99.90;;;;;;5008878;28;20100;-59
2023/06/13 11:40:54;;;;;;;10.52;2.90;;;24.70;99.90;;;;;;5007158;28;20081;-59
2023/06/13 11:43:20;;;;;;;13.63;3.13;;;24.70;99.90;;;;;;5001434;28;20084;-59
2023/06/13 11:45:46;;;;;;;10.85;2.72;;;24.60;99.90;;;;;;5010233;28;20029;-59
2023/06/13 11:48:17;;;;;;;8.65;3.03;;;24.50;99.90;;;;;;5009279;28;20484;-59
2023/06/13 11:50:44;;;;;;;9.85;2.47;;;24.50;99.90;;;;;;5010886;28;20054;-59
2023/06/13 11:53:11;;;;;;;9.27;2.83;;;24.40;99.90;;;;;;5009501;28;20447;-59
2023/06/13 11:55:36;;;;;;;12.82;3.10;;;24.20;99.90;;;;;;5008839;28;20081;-59
2023/06/13 11:58:03;;;;;;;15.57;3.50;;;24.20;99.90;;;;;;5010353;28;20512;-59
2023/06/13 12:00:46;;;;;;;5.63;2.30;;;24.10;99.90;;;;;;5009370;28;20038;-59
2023/06/13 12:03:12;;;;;;;10.80;2.45;;;24.00;99.90;;;;;;5006073;28;20117;-59
2023/06/13 12:05:37;;;;;;;12.57;3.08;;;24.10;99.90;;;;;;5008155;28;20117;-59
2023/06/13 12:08:03;;;;;;;12.13;2.83;;;24.00;99.90;;;;;;5009574;28;20026;-59
2023/06/13 12:10:29;;;;;;;5.90;2.58;;;23.90;99.90;;;;;;5008861;28;20042;-60
2023/06/13 12:12:57;;;;;;;13.93;2.83;;;23.80;99.90;;;;;;5010629;28;20387;-59
2023/06/13 12:15:27;;;;;;;11.77;2.85;;;23.80;99.90;;;;;;5009419;28;20124;-59
2023/06/13 12:18:01;;;;;;;11.93;2.55;;;23.80;99.90;;;;;;5009967;28;20515;-59
2023/06/13 12:20:28;;;;;;;9.15;2.67;;;23.60;99.90;;;;;;5009512;28;20045;-59
2023/06/13 12:22:58;;;;;;;16.38;2.67;;;23.50;99.90;;;;;;5009384;28;20041;-59
2023/06/13 12:25:27;;;;;;;8.30;2.50;;;23.50;99.90;;;;;;5010417;28;20045;-59
2023/06/13 12:27:55;;;;;;;10.23;2.72;;;23.50;99.90;;;;;;5010625;28;20061;-59
2023/06/13 12:30:21;;;;;;;9.23;2.70;;;23.50;99.90;;;;;;5010931;28;20428;-59
2023/06/13 12:32:48;;;;;;;8.75;2.80;;;23.50;99.90;;;;;;5008229;28;20038;-59
2023/06/13 12:35:20;;;;;;;6.35;2.60;;;23.40;99.90;;;;;;5008731;28;20135;-60
2023/06/13 12:37:55;;;;;;;5.35;2.55;;;23.40;99.90;;;;;;5007733;28;20034;-59
2023/06/13 12:40:29;;;;;;;6.72;2.80;;;23.30;99.90;;;;;;5010273;28;20092;-59
2023/06/13 12:42:56;;;;;;;13.13;2.90;;;23.20;99.90;;;;;;5007401;28;20397;-59
2023/06/13 12:45:21;;;;;;;7.43;2.63;;;23.30;99.90;;;;;;5008524;28;20073;-59
2023/06/13 12:47:47;;;;;;;9.52;2.70;;;23.40;99.90;;;;;;5008153;28;20080;-59